Time;durP1;ratioP1;P1;durP2;ratioP2;P2;SDS_P1;SDS_P2;PMS_P1;PMS_P2;Temp;Humidity;BMP_temperature;BMP_pressure;BME280_temperature;BME280_humidity;BME280_pressure;Samples;Min_cycle;Max_cycle;Signal;HPM_P1;HPM_P2
2022/11/12 00:09:48;;;;;;;37.45;18.33;;;;;;;5.38;68.85;101739.84;30629180;28;97106;-66
2022/11/12 00:24:48;;;;;;;32.40;17.08;;;;;;;5.26;69.11;101753.84;30627350;28;96692;-65
2022/11/12 00:39:49;;;;;;;36.10;17.60;;;;;;;4.97;70.05;101751.25;30625778;28;97292;-66
2022/11/12 00:54:49;;;;;;;28.65;15.82;;;;;;;4.85;70.74;101754.66;30625051;28;96619;-66
2022/11/12 01:09:49;;;;;;;28.02;16.00;;;;;;;4.86;70.72;101754.53;30622802;28;96712;-66
2022/11/12 01:24:51;;;;;;;31.90;16.83;;;;;;;4.55;70.90;101745.00;30621054;28;97418;-66
2022/11/12 01:39:51;;;;;;;23.35;15.23;;;;;;;4.48;71.80;101746.34;30619407;28;97477;-67
2022/11/12 01:54:54;;;;;;;25.67;12.07;;;;;;;4.70;71.99;101745.88;30618908;28;96921;-67
2022/11/12 02:09:55;;;;;;;21.92;10.50;;;;;;;4.84;72.31;101739.72;30617816;28;96625;-67
2022/11/12 02:24:55;;;;;;;18.65;10.02;;;;;;;4.98;72.01;101725.69;30616246;28;96670;-67
2022/11/12 02:39:55;;;;;;;16.00;9.13;;;;;;;5.09;71.73;101737.28;30614833;28;97211;-67
2022/11/12 02:54:56;;;;;;;12.77;7.90;;;;;;;4.94;71.77;101724.19;30613200;28;96695;-67
2022/11/12 03:09:56;;;;;;;14.90;8.00;;;;;;;4.88;71.85;101725.41;30613054;28;96915;-67
2022/11/12 03:24:56;;;;;;;9.52;5.70;;;;;;;5.04;72.13;101730.59;30611836;28;96863;-67
2022/11/12 03:39:57;;;;;;;9.68;5.53;;;;;;;5.18;71.99;101735.00;30610262;28;96960;-67
2022/11/12 03:54:57;;;;;;;10.60;5.78;;;;;;;5.15;71.85;101735.19;30609669;28;97316;-66
2022/11/12 04:09:57;;;;;;;13.30;6.63;;;;;;;5.08;71.96;101727.66;30626213;28;97241;-66
2022/11/12 04:55:44;;;;;;;13.48;7.57;;;;;;;4.48;72.95;101727.84;30619890;28;97005;-66
2022/11/12 05:10:44;;;;;;;18.20;7.53;;;;;;;4.14;72.85;101743.06;30620683;28;96679;-66
2022/11/12 05:25:44;;;;;;;14.77;7.90;;;;;;;3.92;73.24;101756.66;30619751;28;96813;-66
2022/11/12 05:40:45;;;;;;;15.43;7.55;;;;;;;3.68;73.91;101757.97;30618301;28;96654;-66
2022/11/12 05:55:45;;;;;;;14.20;7.05;;;;;;;3.70;74.20;101774.56;30618567;28;96718;-67
2022/11/12 06:10:52;;;;;;;11.73;6.10;;;;;;;3.81;74.47;101788.91;30616271;28;97582;-65
2022/11/12 06:25:53;;;;;;;10.27;6.18;;;;;;;4.15;74.76;101798.34;30611738;28;97581;-66
2022/11/12 06:40:53;;;;;;;13.23;6.32;;;;;;;4.65;74.71;101787.56;30611564;28;96782;-66
2022/11/12 06:56:00;;;;;;;12.15;7.28;;;;;;;5.43;74.30;101803.00;30610131;28;96678;-66
2022/11/12 07:11:00;;;;;;;12.40;6.93;;;;;;;6.41;73.31;101814.31;30610080;28;97015;-66
2022/11/12 07:26:11;;;;;;;11.15;6.30;;;;;;;6.78;70.39;101832.97;30607773;28;96668;-66
2022/11/12 07:41:14;;;;;;;12.35;6.80;;;;;;;6.76;69.63;101820.78;30621771;28;97431;-66
2022/11/12 07:56:18;;;;;;;16.83;9.70;;;;;;;7.78;70.07;101829.56;30626196;28;96850;-66
2022/11/12 08:11:18;;;;;;;12.57;7.00;;;;;;;9.15;67.83;101823.69;30627517;28;96640;-66
2022/11/12 08:26:19;;;;;;;11.13;7.05;;;;;;;15.60;60.93;101835.00;30625651;28;96977;-66
2022/11/12 08:41:19;;;;;;;9.75;5.80;;;;;;;21.90;50.19;101845.63;30624151;28;96890;-64
2022/11/12 08:56:20;;;;;;;7.68;4.63;;;;;;;27.47;38.04;101846.81;30621485;28;96778;-66
2022/11/12 09:11:20;;;;;;;9.27;5.10;;;;;;;31.22;27.16;101830.38;30617697;28;96874;-66
2022/11/12 09:26:21;;;;;;;12.02;5.15;;;;;;;34.01;21.45;101837.00;30610297;28;96756;-66
2022/11/12 09:41:28;;;;;;;7.65;4.63;;;;;;;35.79;18.62;101843.75;30608729;28;96842;-66
2022/11/12 09:56:29;;;;;;;7.53;4.63;;;;;;;37.92;15.96;101845.63;30605669;28;96747;-63
2022/11/12 10:27:10;;;;;;;7.90;4.27;;;;;;;40.62;13.49;101829.56;30599190;28;97234;-64
2022/11/12 10:42:15;;;;;;;7.13;4.80;;;;;;;41.04;13.08;101824.06;30602324;28;97183;-65
2022/11/12 10:57:22;;;;;;;9.47;5.40;;;;;;;36.48;14.72;101821.78;30600849;28;97321;-63
2022/11/12 11:12:31;;;;;;;9.73;4.50;;;;;;;40.24;13.00;101810.84;30599082;28;97131;-63
2022/11/12 11:27:44;;;;;;;5.43;3.90;;;;;;;44.25;10.61;101805.47;30601380;28;96807;-64
2022/11/12 11:43:07;;;;;;;8.87;4.20;;;;;;;44.82;10.19;101794.81;30597836;28;97071;-64
2022/11/12 11:58:41;;;;;;;4.00;3.30;;;;;;;45.18;9.46;101783.53;30598091;28;96648;-64
2022/11/12 12:13:58;;;;;;;4.73;2.80;;;;;;;45.60;9.04;101779.94;30594842;28;96777;-64
2022/11/12 12:29:06;;;;;;;4.87;2.80;;;;;;;44.61;9.90;101781.88;30610675;28;97485;-64
2022/11/12 12:44:09;;;;;;;5.70;2.77;;;;;;;42.63;10.73;101772.88;30614216;28;97079;-64
2022/11/12 12:59:19;;;;;;;8.03;3.30;;;;;;;39.93;12.52;101781.22;30622601;28;96747;-64
2022/11/12 13:14:35;;;;;;;7.20;4.13;;;;;;;40.08;12.55;101775.13;30620280;28;97359;-63
2022/11/12 13:29:35;;;;;;;6.70;3.20;;;;;;;39.01;13.63;101769.13;30618653;28;96690;-65
2022/11/12 13:44:35;;;;;;;6.47;4.07;;;;;;;37.07;14.63;101760.91;30616251;28;96905;-64
2022/11/12 13:59:36;;;;;;;7.50;4.32;;;;;;;34.55;16.78;101754.88;30617363;28;96735;-64
2022/11/12 14:14:56;;;;;;;8.95;5.15;;;;;;;32.48;18.51;101742.81;30606833;28;97252;-64
2022/11/12 14:30:21;;;;;;;11.90;6.43;;;;;;;27.37;23.44;101748.94;30609564;28;97543;-64
2022/11/12 14:45:22;;;;;;;13.93;8.33;;;;;;;22.58;29.08;101756.91;30612213;28;96782;-67
2022/11/12 15:00:31;;;;;;;12.40;7.03;;;;;;;17.82;35.42;101753.00;30610686;28;97051;-67
2022/11/12 15:15:34;;;;;;;12.63;6.63;;;;;;;14.49;40.90;101763.31;30595821;28;97141;-67
2022/11/12 15:30:34;;;;;;;10.67;6.97;;;;;;;12.43;44.99;101761.06;30605876;28;97927;-67
2022/11/12 15:45:35;;;;;;;17.30;7.30;;;;;;;10.84;49.04;101749.50;30606828;28;97450;-67
2022/11/12 16:00:37;;;;;;;12.75;6.95;;;;;;;9.86;51.94;101780.78;30619651;28;96646;-65
2022/11/12 16:15:37;;;;;;;15.77;8.07;;;;;;;9.05;54.65;101788.16;30623607;28;97503;-68
2022/11/12 16:30:38;;;;;;;20.13;10.15;;;;;;;8.42;56.73;101797.38;30616714;28;97127;-69
2022/11/12 16:45:41;;;;;;;18.10;9.52;;;;;;;7.94;58.47;101800.94;30614058;28;97303;-68
2022/11/12 17:00:44;;;;;;;31.13;13.10;;;;;;;7.57;60.32;101792.16;30613658;28;97303;-69
2022/11/12 17:15:46;;;;;;;34.93;14.33;;;;;;;7.26;61.99;101789.06;30610331;28;96763;-67
2022/11/12 17:30:46;;;;;;;25.20;13.07;;;;;;;7.10;62.93;101792.78;30610321;28;97458;-67
2022/11/12 17:45:54;;;;;;;28.02;14.80;;;;;;;6.86;64.16;101789.22;30608670;28;96915;-66
2022/11/12 18:01:02;;;;;;;28.53;15.13;;;;;;;6.78;65.18;101798.56;30607645;28;96762;-66
2022/11/12 18:16:13;;;;;;;29.47;13.33;;;;;;;7.22;66.89;101809.63;30603465;28;96844;-66
2022/11/12 18:31:13;;;;;;;26.27;16.00;;;;;;;7.44;66.34;101813.41;30604028;28;96775;-66
2022/11/12 18:46:13;;;;;;;32.13;20.15;;;;;;;7.63;66.79;101815.59;30602267;28;98574;-67
2022/11/12 19:01:19;;;;;;;42.25;23.42;;;;;;;7.74;66.53;101822.78;30598812;28;97269;-67
2022/11/12 19:16:22;;;;;;;42.47;22.00;;;;;;;7.48;66.87;101811.38;30597202;28;97045;-65
2022/11/12 19:31:25;;;;;;;38.10;22.20;;;;;;;7.05;68.37;101808.19;30602551;28;97176;-75
2022/11/12 19:46:25;;;;;;;42.27;22.90;;;;;;;7.03;69.69;101801.31;30618833;28;97472;-66
2022/11/12 20:01:25;;;;;;;43.13;22.10;;;;;;;7.23;69.78;101799.88;30615373;28;97020;-66
2022/11/12 20:16:26;;;;;;;44.30;26.52;;;;;;;7.33;70.29;101803.59;30616467;28;96761;-66
2022/11/12 20:31:26;;;;;;;40.75;25.02;;;;;;;7.29;71.04;101812.72;30616167;28;96751;-66
2022/11/12 20:46:27;;;;;;;42.22;25.30;;;;;;;7.45;71.13;101808.00;30611465;28;97044;-68
2022/11/12 21:01:28;;;;;;;49.67;27.60;;;;;;;7.57;70.96;101808.06;30608902;28;96648;-67
2022/11/12 21:16:29;;;;;;;44.37;25.13;;;;;;;7.72;72.08;101793.72;30608041;28;97671;-67
2022/11/12 21:31:29;;;;;;;42.65;24.70;;;;;;;7.83;71.32;101778.78;30622014;28;96689;-67
2022/11/12 21:46:31;;;;;;;33.20;22.15;;;;;;;7.86;72.56;101784.72;30616465;28;98445;-67
2022/11/12 22:01:33;;;;;;;41.57;22.30;;;;;;;7.98;71.37;101777.66;30614985;28;97632;-67
2022/11/12 22:16:33;;;;;;;39.73;21.23;;;;;;;8.01;71.84;101777.44;30617601;28;96695;-67
2022/11/12 22:31:33;;;;;;;38.95;21.73;;;;;;;8.02;72.38;101778.28;30615178;28;96706;-66
2022/11/12 22:46:35;;;;;;;38.63;22.95;;;;;;;8.07;72.32;101753.06;30613220;28;96866;-68
2022/11/12 23:01:35;;;;;;;39.37;23.97;;;;;;;8.10;72.58;101768.75;30613781;28;97473;-67
2022/11/12 23:16:36;;;;;;;41.50;22.65;;;;;;;8.07;72.35;101754.91;30612907;28;97367;-66
2022/11/12 23:31:36;;;;;;;41.13;22.48;;;;;;;8.04;72.31;101740.06;30611651;28;96983;-66
2022/11/12 23:46:37;;;;;;;45.28;24.13;;;;;;;8.07;72.52;101749.59;30610130;28;98173;-68
